Humble, Texas
Current Conditions -  °F | °C
As of 3:53 PM on Saturday 20 Dec 2014 (Local Time) from KIAH Reporting Station
Overcast Overcast  
Wind Chill: 54°   Ceiling: 1100
Heat Index: 54°   Visibility: 10mi
Dew Point: 49°   Wind: 9mph
Humidity: 83%   Direction: 30°NNE
Pressure: 30.15"   Gusts: NA
Location:  30°N, 95.27°W
Report Text: KIAH 202153Z 03008KT 10SM BKN011 OVC016 12/09 A3015 RMK AO2 SLP210 T01220094
Loading
Personal Weather Stations






























Interactive Weather Map New forecast layout! Learn more

10-Day Weather Forecast

Advertisements
Track Severe Weather on mobile